Patterson, Louisiana
Current Conditions -  °F | °C
As of 7:15 PM on Tuesday 27 Jan 2015 (Local Time) from KPTN Reporting Station
Clear Clear  
Wind Chill: 57°   Ceiling: Unl
Heat Index: 57°   Visibility: 10mi
Dew Point: 46°   Wind: 6mph
Humidity: 67%   Direction: 230°SW
Pressure: 30.14"   Gusts: NA
Location:  29.69°N, 91.3°W
Report Text: KPTN 280115Z AUTO 23005KT 10SM CLR 14/08 A3014 RMK AO1
Loading
Personal Weather Stations






























Interactive Weather Map New forecast layout! Learn more

10-Day Weather Forecast

Advertisements
Track Severe Weather on mobile